Terminal Aerodrome Forecast
Issued by NWS

Home | Current Version | Previous Version | Text Only | Print | Product List | Glossary On
Versions: 1 2 3 4 5 6 7 8 9 10 11 12 13 14 15 16 17
000
FTUS46 KPDT 012300
TAFDLS
TAF
KDLS 012320Z 0200/0224 31014G21KT P6SM VCSH SCT060 BKN100
     FM020400 30012KT P6SM FEW060 SCT080
     FM021200 31008KT P6SM BKN250
     FM021800 32013G20KT P6SM SCT250=

USA.gov is the U.S. government's official web portal to all federal, state and local government web resources and services.